sensor_id;sensor_type;location;lat;lon;timestamp;P1;durP1;ratioP1;P2;durP2;ratioP2
61911;SDS011;49973;52.084;5.412;2022-10-31T00:01:25;26.33;;;10.97;;
61911;SDS011;49973;52.084;5.412;2022-10-31T00:03:55;14.77;;;9.10;;
61911;SDS011;49973;52.084;5.412;2022-10-31T00:06:23;16.30;;;9.00;;
61911;SDS011;49973;52.084;5.412;2022-10-31T00:08:53;19.97;;;9.57;;
61911;SDS011;49973;52.084;5.412;2022-10-31T00:11:24;17.77;;;10.10;;
61911;SDS011;49973;52.084;5.412;2022-10-31T00:13:53;21.97;;;9.47;;
61911;SDS011;49973;52.084;5.412;2022-10-31T00:16:22;17.30;;;10.23;;
61911;SDS011;49973;52.084;5.412;2022-10-31T00:18:52;18.57;;;9.73;;
61911;SDS011;49973;52.084;5.412;2022-10-31T00:21:22;19.27;;;10.00;;
61911;SDS011;49973;52.084;5.412;2022-10-31T00:23:51;18.23;;;9.00;;
61911;SDS011;49973;52.084;5.412;2022-10-31T00:26:20;25.13;;;10.40;;
61911;SDS011;49973;52.084;5.412;2022-10-31T00:28:49;17.40;;;9.40;;
61911;SDS011;49973;52.084;5.412;2022-10-31T00:31:18;24.80;;;10.13;;
61911;SDS011;49973;52.084;5.412;2022-10-31T00:33:48;17.17;;;8.97;;
61911;SDS011;49973;52.084;5.412;2022-10-31T00:36:18;21.73;;;9.50;;
61911;SDS011;49973;52.084;5.412;2022-10-31T00:38:47;18.80;;;8.57;;
61911;SDS011;49973;52.084;5.412;2022-10-31T00:41:16;13.43;;;8.87;;
61911;SDS011;49973;52.084;5.412;2022-10-31T00:43:45;18.53;;;9.60;;
61911;SDS011;49973;52.084;5.412;2022-10-31T00:46:15;15.87;;;8.77;;
61911;SDS011;49973;52.084;5.412;2022-10-31T00:48:44;17.03;;;8.93;;
61911;SDS011;49973;52.084;5.412;2022-10-31T00:51:13;15.30;;;9.43;;
61911;SDS011;49973;52.084;5.412;2022-10-31T00:53:42;18.23;;;8.70;;
61911;SDS011;49973;52.084;5.412;2022-10-31T00:56:10;16.57;;;8.27;;
61911;SDS011;49973;52.084;5.412;2022-10-31T00:58:39;12.43;;;8.17;;
61911;SDS011;49973;52.084;5.412;2022-10-31T01:01:08;16.33;;;9.27;;
61911;SDS011;49973;52.084;5.412;2022-10-31T01:03:38;18.37;;;8.20;;
61911;SDS011;49973;52.084;5.412;2022-10-31T01:06:11;15.50;;;8.47;;
61911;SDS011;49973;52.084;5.412;2022-10-31T01:08:40;17.20;;;7.70;;
61911;SDS011;49973;52.084;5.412;2022-10-31T01:11:12;18.87;;;7.93;;
61911;SDS011;49973;52.084;5.412;2022-10-31T01:13:43;11.07;;;7.77;;
61911;SDS011;49973;52.084;5.412;2022-10-31T01:16:13;13.90;;;7.83;;
61911;SDS011;49973;52.084;5.412;2022-10-31T01:18:44;13.43;;;8.27;;
61911;SDS011;49973;52.084;5.412;2022-10-31T01:21:14;13.37;;;8.10;;
61911;SDS011;49973;52.084;5.412;2022-10-31T01:23:44;17.17;;;8.43;;
61911;SDS011;49973;52.084;5.412;2022-10-31T01:26:14;11.67;;;8.00;;
61911;SDS011;49973;52.084;5.412;2022-10-31T01:28:45;15.13;;;8.00;;
61911;SDS011;49973;52.084;5.412;2022-10-31T01:31:15;26.13;;;8.60;;
61911;SDS011;49973;52.084;5.412;2022-10-31T01:33:46;19.53;;;8.63;;
61911;SDS011;49973;52.084;5.412;2022-10-31T01:36:16;16.23;;;7.77;;
61911;SDS011;49973;52.084;5.412;2022-10-31T01:38:50;16.70;;;7.97;;
61911;SDS011;49973;52.084;5.412;2022-10-31T01:41:20;12.90;;;7.43;;
61911;SDS011;49973;52.084;5.412;2022-10-31T01:43:51;14.13;;;7.37;;
61911;SDS011;49973;52.084;5.412;2022-10-31T01:46:21;16.40;;;9.00;;
61911;SDS011;49973;52.084;5.412;2022-10-31T01:48:53;15.77;;;7.60;;
61911;SDS011;49973;52.084;5.412;2022-10-31T01:51:24;15.20;;;8.27;;
61911;SDS011;49973;52.084;5.412;2022-10-31T01:53:56;17.40;;;8.70;;
61911;SDS011;49973;52.084;5.412;2022-10-31T01:56:28;16.90;;;8.13;;
61911;SDS011;49973;52.084;5.412;2022-10-31T01:58:57;14.00;;;7.27;;
61911;SDS011;49973;52.084;5.412;2022-10-31T02:01:27;15.03;;;7.53;;
61911;SDS011;49973;52.084;5.412;2022-10-31T02:03:58;15.30;;;7.27;;
61911;SDS011;49973;52.084;5.412;2022-10-31T02:06:28;13.97;;;7.90;;
61911;SDS011;49973;52.084;5.412;2022-10-31T02:09:03;18.10;;;7.63;;
61911;SDS011;49973;52.084;5.412;2022-10-31T02:11:32;14.93;;;7.27;;
61911;SDS011;49973;52.084;5.412;2022-10-31T02:14:03;15.73;;;7.93;;
61911;SDS011;49973;52.084;5.412;2022-10-31T02:16:32;18.73;;;7.33;;
61911;SDS011;49973;52.084;5.412;2022-10-31T02:19:03;19.57;;;8.43;;
61911;SDS011;49973;52.084;5.412;2022-10-31T02:21:37;13.83;;;7.47;;
61911;SDS011;49973;52.084;5.412;2022-10-31T02:24:34;22.80;;;8.10;;
61911;SDS011;49973;52.084;5.412;2022-10-31T02:27:49;10.27;;;7.00;;
61911;SDS011;49973;52.084;5.412;2022-10-31T02:30:30;13.40;;;7.13;;
61911;SDS011;49973;52.084;5.412;2022-10-31T02:33:20;12.30;;;7.37;;
61911;SDS011;49973;52.084;5.412;2022-10-31T02:35:55;17.27;;;6.73;;
61911;SDS011;49973;52.084;5.412;2022-10-31T02:38:37;11.07;;;7.07;;
61911;SDS011;49973;52.084;5.412;2022-10-31T02:41:17;15.57;;;7.93;;
61911;SDS011;49973;52.084;5.412;2022-10-31T02:43:56;16.00;;;8.23;;
61911;SDS011;49973;52.084;5.412;2022-10-31T02:46:33;17.80;;;8.70;;
61911;SDS011;49973;52.084;5.412;2022-10-31T02:49:10;18.43;;;8.07;;
61911;SDS011;49973;52.084;5.412;2022-10-31T02:51:43;18.53;;;8.23;;
61911;SDS011;49973;52.084;5.412;2022-10-31T02:54:18;15.83;;;8.93;;
61911;SDS011;49973;52.084;5.412;2022-10-31T02:56:52;15.97;;;7.60;;
61911;SDS011;49973;52.084;5.412;2022-10-31T02:59:26;15.30;;;7.70;;
61911;SDS011;49973;52.084;5.412;2022-10-31T03:02:06;17.20;;;8.07;;
61911;SDS011;49973;52.084;5.412;2022-10-31T03:05:06;13.10;;;7.87;;
61911;SDS011;49973;52.084;5.412;2022-10-31T03:07:45;13.73;;;7.53;;
61911;SDS011;49973;52.084;5.412;2022-10-31T03:10:20;15.20;;;7.47;;
61911;SDS011;49973;52.084;5.412;2022-10-31T03:13:00;13.00;;;7.83;;
61911;SDS011;49973;52.084;5.412;2022-10-31T03:15:39;15.93;;;7.80;;
61911;SDS011;49973;52.084;5.412;2022-10-31T03:18:11;19.10;;;8.33;;
61911;SDS011;49973;52.084;5.412;2022-10-31T03:20:47;14.93;;;8.33;;
61911;SDS011;49973;52.084;5.412;2022-10-31T03:23:22;14.83;;;8.23;;
61911;SDS011;49973;52.084;5.412;2022-10-31T03:25:52;19.40;;;8.13;;
61911;SDS011;49973;52.084;5.412;2022-10-31T03:28:26;15.07;;;8.43;;
61911;SDS011;49973;52.084;5.412;2022-10-31T03:30:58;13.97;;;7.50;;
61911;SDS011;49973;52.084;5.412;2022-10-31T03:33:35;14.30;;;7.67;;
61911;SDS011;49973;52.084;5.412;2022-10-31T03:36:07;14.27;;;7.97;;
61911;SDS011;49973;52.084;5.412;2022-10-31T03:38:39;17.57;;;7.83;;
61911;SDS011;49973;52.084;5.412;2022-10-31T03:41:11;18.57;;;8.80;;
61911;SDS011;49973;52.084;5.412;2022-10-31T03:43:46;16.93;;;8.73;;
61911;SDS011;49973;52.084;5.412;2022-10-31T03:46:20;15.33;;;7.60;;
61911;SDS011;49973;52.084;5.412;2022-10-31T03:48:53;13.87;;;8.37;;
61911;SDS011;49973;52.084;5.412;2022-10-31T03:51:24;12.63;;;6.93;;
61911;SDS011;49973;52.084;5.412;2022-10-31T03:54:00;16.23;;;7.80;;
61911;SDS011;49973;52.084;5.412;2022-10-31T03:56:33;12.97;;;6.50;;
61911;SDS011;49973;52.084;5.412;2022-10-31T03:59:04;13.03;;;7.13;;
61911;SDS011;49973;52.084;5.412;2022-10-31T04:01:38;13.17;;;7.67;;
61911;SDS011;49973;52.084;5.412;2022-10-31T04:04:11;11.30;;;7.60;;
61911;SDS011;49973;52.084;5.412;2022-10-31T04:06:42;15.53;;;7.73;;
61911;SDS011;49973;52.084;5.412;2022-10-31T04:09:13;12.00;;;6.53;;
61911;SDS011;49973;52.084;5.412;2022-10-31T04:11:45;14.53;;;7.90;;
61911;SDS011;49973;52.084;5.412;2022-10-31T04:14:32;12.60;;;7.37;;
61911;SDS011;49973;52.084;5.412;2022-10-31T04:17:05;12.77;;;7.67;;
61911;SDS011;49973;52.084;5.412;2022-10-31T04:19:39;11.93;;;7.20;;
61911;SDS011;49973;52.084;5.412;2022-10-31T04:22:09;13.23;;;7.33;;
61911;SDS011;49973;52.084;5.412;2022-10-31T04:24:39;15.37;;;6.77;;
61911;SDS011;49973;52.084;5.412;2022-10-31T04:27:13;15.60;;;6.47;;
61911;SDS011;49973;52.084;5.412;2022-10-31T04:29:42;15.10;;;6.97;;
61911;SDS011;49973;52.084;5.412;2022-10-31T04:32:16;11.87;;;7.27;;
61911;SDS011;49973;52.084;5.412;2022-10-31T04:34:44;13.03;;;7.10;;
61911;SDS011;49973;52.084;5.412;2022-10-31T04:37:14;13.90;;;6.33;;
61911;SDS011;49973;52.084;5.412;2022-10-31T04:39:43;10.83;;;6.43;;
61911;SDS011;49973;52.084;5.412;2022-10-31T04:42:30;11.17;;;6.00;;
61911;SDS011;49973;52.084;5.412;2022-10-31T04:45:02;13.87;;;6.23;;
61911;SDS011;49973;52.084;5.412;2022-10-31T04:47:32;13.73;;;6.87;;
61911;SDS011;49973;52.084;5.412;2022-10-31T04:50:02;11.60;;;7.10;;
61911;SDS011;49973;52.084;5.412;2022-10-31T04:52:39;12.97;;;6.97;;
61911;SDS011;49973;52.084;5.412;2022-10-31T04:55:10;13.40;;;7.77;;
61911;SDS011;49973;52.084;5.412;2022-10-31T04:58:03;16.17;;;7.60;;
61911;SDS011;49973;52.084;5.412;2022-10-31T05:00:32;16.30;;;7.40;;
61911;SDS011;49973;52.084;5.412;2022-10-31T05:03:01;16.13;;;7.77;;
61911;SDS011;49973;52.084;5.412;2022-10-31T05:05:30;14.17;;;6.80;;
61911;SDS011;49973;52.084;5.412;2022-10-31T05:08:03;10.80;;;7.37;;
61911;SDS011;49973;52.084;5.412;2022-10-31T05:10:32;11.60;;;6.43;;
61911;SDS011;49973;52.084;5.412;2022-10-31T05:13:02;10.13;;;6.67;;
61911;SDS011;49973;52.084;5.412;2022-10-31T05:16:10;12.13;;;6.53;;
61911;SDS011;49973;52.084;5.412;2022-10-31T05:19:04;11.50;;;7.33;;
61911;SDS011;49973;52.084;5.412;2022-10-31T05:22:05;12.97;;;6.90;;
61911;SDS011;49973;52.084;5.412;2022-10-31T05:24:36;13.57;;;6.17;;
61911;SDS011;49973;52.084;5.412;2022-10-31T05:27:04;11.90;;;6.03;;
61911;SDS011;49973;52.084;5.412;2022-10-31T05:29:34;14.23;;;5.47;;
61911;SDS011;49973;52.084;5.412;2022-10-31T05:32:03;11.57;;;5.53;;
61911;SDS011;49973;52.084;5.412;2022-10-31T05:34:51;8.93;;;5.17;;
61911;SDS011;49973;52.084;5.412;2022-10-31T05:37:45;9.63;;;4.93;;
61911;SDS011;49973;52.084;5.412;2022-10-31T05:40:15;6.07;;;4.23;;
61911;SDS011;49973;52.084;5.412;2022-10-31T05:42:45;10.17;;;4.37;;
61911;SDS011;49973;52.084;5.412;2022-10-31T05:45:15;8.80;;;4.43;;
61911;SDS011;49973;52.084;5.412;2022-10-31T05:47:51;11.37;;;4.27;;
61911;SDS011;49973;52.084;5.412;2022-10-31T05:50:41;4.93;;;3.53;;
61911;SDS011;49973;52.084;5.412;2022-10-31T05:53:10;6.37;;;3.80;;
61911;SDS011;49973;52.084;5.412;2022-10-31T05:55:41;10.40;;;4.63;;
61911;SDS011;49973;52.084;5.412;2022-10-31T05:58:18;13.17;;;4.77;;
61911;SDS011;49973;52.084;5.412;2022-10-31T06:00:58;7.07;;;4.23;;
61911;SDS011;49973;52.084;5.412;2022-10-31T06:03:27;7.30;;;3.77;;
61911;SDS011;49973;52.084;5.412;2022-10-31T06:05:56;9.77;;;4.70;;
61911;SDS011;49973;52.084;5.412;2022-10-31T06:08:36;14.53;;;5.87;;
61911;SDS011;49973;52.084;5.412;2022-10-31T06:11:11;24.43;;;8.50;;
61911;SDS011;49973;52.084;5.412;2022-10-31T06:13:58;27.33;;;9.33;;
61911;SDS011;49973;52.084;5.412;2022-10-31T06:16:41;19.43;;;8.70;;
61911;SDS011;49973;52.084;5.412;2022-10-31T06:19:28;49.70;;;11.03;;
61911;SDS011;49973;52.084;5.412;2022-10-31T06:21:58;86.57;;;13.50;;
61911;SDS011;49973;52.084;5.412;2022-10-31T06:24:27;51.37;;;13.13;;
61911;SDS011;49973;52.084;5.412;2022-10-31T06:27:20;41.07;;;11.70;;
61911;SDS011;49973;52.084;5.412;2022-10-31T06:29:49;37.67;;;11.77;;
61911;SDS011;49973;52.084;5.412;2022-10-31T06:32:26;27.63;;;10.60;;
61911;SDS011;49973;52.084;5.412;2022-10-31T06:34:55;32.33;;;11.90;;
61911;SDS011;49973;52.084;5.412;2022-10-31T06:37:23;33.97;;;11.20;;
61911;SDS011;49973;52.084;5.412;2022-10-31T06:39:58;18.87;;;10.37;;
61911;SDS011;49973;52.084;5.412;2022-10-31T06:42:32;32.73;;;11.03;;
61911;SDS011;49973;52.084;5.412;2022-10-31T06:45:01;26.33;;;11.07;;
61911;SDS011;49973;52.084;5.412;2022-10-31T06:47:50;31.83;;;11.03;;
61911;SDS011;49973;52.084;5.412;2022-10-31T06:50:58;24.57;;;10.67;;
61911;SDS011;49973;52.084;5.412;2022-10-31T06:53:26;26.67;;;9.73;;
61911;SDS011;49973;52.084;5.412;2022-10-31T06:55:56;28.23;;;9.80;;
61911;SDS011;49973;52.084;5.412;2022-10-31T06:58:27;22.20;;;9.37;;
61911;SDS011;49973;52.084;5.412;2022-10-31T07:00:59;20.30;;;8.93;;
61911;SDS011;49973;52.084;5.412;2022-10-31T07:03:28;22.03;;;8.33;;
61911;SDS011;49973;52.084;5.412;2022-10-31T07:05:56;22.37;;;9.20;;
61911;SDS011;49973;52.084;5.412;2022-10-31T07:08:25;18.77;;;7.57;;
61911;SDS011;49973;52.084;5.412;2022-10-31T07:10:55;19.30;;;8.27;;
61911;SDS011;49973;52.084;5.412;2022-10-31T07:13:29;23.57;;;9.43;;
61911;SDS011;49973;52.084;5.412;2022-10-31T07:16:05;21.60;;;8.17;;
61911;SDS011;49973;52.084;5.412;2022-10-31T07:18:35;19.47;;;9.30;;
61911;SDS011;49973;52.084;5.412;2022-10-31T07:21:04;18.37;;;9.80;;
61911;SDS011;49973;52.084;5.412;2022-10-31T07:23:33;20.33;;;8.77;;
61911;SDS011;49973;52.084;5.412;2022-10-31T07:26:20;16.63;;;8.20;;
61911;SDS011;49973;52.084;5.412;2022-10-31T07:28:50;27.13;;;9.57;;
61911;SDS011;49973;52.084;5.412;2022-10-31T07:31:22;14.13;;;7.23;;
61911;SDS011;49973;52.084;5.412;2022-10-31T07:33:53;15.37;;;7.60;;
61911;SDS011;49973;52.084;5.412;2022-10-31T07:36:27;17.73;;;7.70;;
61911;SDS011;49973;52.084;5.412;2022-10-31T07:39:01;11.73;;;7.27;;
61911;SDS011;49973;52.084;5.412;2022-10-31T07:41:32;14.50;;;7.30;;
61911;SDS011;49973;52.084;5.412;2022-10-31T07:44:03;13.97;;;8.20;;
61911;SDS011;49973;52.084;5.412;2022-10-31T07:46:51;16.20;;;7.33;;
61911;SDS011;49973;52.084;5.412;2022-10-31T07:49:38;17.17;;;7.30;;
61911;SDS011;49973;52.084;5.412;2022-10-31T07:52:25;18.10;;;7.57;;
61911;SDS011;49973;52.084;5.412;2022-10-31T07:55:12;23.10;;;8.80;;
61911;SDS011;49973;52.084;5.412;2022-10-31T07:57:46;13.37;;;7.17;;
61911;SDS011;49973;52.084;5.412;2022-10-31T08:00:24;13.77;;;7.03;;
61911;SDS011;49973;52.084;5.412;2022-10-31T08:02:56;9.40;;;6.23;;
61911;SDS011;49973;52.084;5.412;2022-10-31T08:05:44;10.93;;;6.17;;
61911;SDS011;49973;52.084;5.412;2022-10-31T08:08:43;9.83;;;6.67;;
61911;SDS011;49973;52.084;5.412;2022-10-31T08:11:11;13.07;;;7.63;;
61911;SDS011;49973;52.084;5.412;2022-10-31T08:13:41;9.17;;;5.93;;
61911;SDS011;49973;52.084;5.412;2022-10-31T08:16:14;11.43;;;5.83;;
61911;SDS011;49973;52.084;5.412;2022-10-31T08:18:59;15.77;;;6.53;;
61911;SDS011;49973;52.084;5.412;2022-10-31T08:21:31;9.40;;;6.20;;
61911;SDS011;49973;52.084;5.412;2022-10-31T08:24:00;11.07;;;6.10;;
61911;SDS011;49973;52.084;5.412;2022-10-31T08:26:29;13.27;;;6.43;;
61911;SDS011;49973;52.084;5.412;2022-10-31T08:28:57;10.13;;;5.97;;
61911;SDS011;49973;52.084;5.412;2022-10-31T08:31:33;11.37;;;7.13;;
61911;SDS011;49973;52.084;5.412;2022-10-31T08:34:26;10.47;;;6.67;;
61911;SDS011;49973;52.084;5.412;2022-10-31T08:37:13;16.90;;;7.10;;
61911;SDS011;49973;52.084;5.412;2022-10-31T08:39:48;10.73;;;7.43;;
61911;SDS011;49973;52.084;5.412;2022-10-31T08:42:17;14.43;;;7.20;;
61911;SDS011;49973;52.084;5.412;2022-10-31T08:44:45;9.83;;;5.83;;
61911;SDS011;49973;52.084;5.412;2022-10-31T08:47:15;8.90;;;6.17;;
61911;SDS011;49973;52.084;5.412;2022-10-31T08:49:44;17.63;;;7.33;;
61911;SDS011;49973;52.084;5.412;2022-10-31T08:52:13;13.67;;;7.10;;
61911;SDS011;49973;52.084;5.412;2022-10-31T08:54:45;10.97;;;6.87;;
61911;SDS011;49973;52.084;5.412;2022-10-31T08:57:45;12.23;;;6.90;;
61911;SDS011;49973;52.084;5.412;2022-10-31T09:00:14;16.00;;;8.37;;
61911;SDS011;49973;52.084;5.412;2022-10-31T09:03:01;15.20;;;9.30;;
61911;SDS011;49973;52.084;5.412;2022-10-31T09:05:32;12.07;;;8.30;;
61911;SDS011;49973;52.084;5.412;2022-10-31T09:08:02;17.30;;;9.07;;
61911;SDS011;49973;52.084;5.412;2022-10-31T09:10:37;11.83;;;8.10;;
61911;SDS011;49973;52.084;5.412;2022-10-31T09:13:08;16.13;;;9.60;;
61911;SDS011;49973;52.084;5.412;2022-10-31T09:16:05;18.90;;;10.37;;
61911;SDS011;49973;52.084;5.412;2022-10-31T09:18:36;15.67;;;9.60;;
61911;SDS011;49973;52.084;5.412;2022-10-31T09:21:04;19.33;;;10.77;;
61911;SDS011;49973;52.084;5.412;2022-10-31T09:23:33;17.20;;;10.73;;
61911;SDS011;49973;52.084;5.412;2022-10-31T09:26:01;14.47;;;10.70;;
61911;SDS011;49973;52.084;5.412;2022-10-31T09:28:30;19.77;;;10.03;;
61911;SDS011;49973;52.084;5.412;2022-10-31T09:31:17;20.23;;;11.03;;
61911;SDS011;49973;52.084;5.412;2022-10-31T09:34:01;24.03;;;10.80;;
61911;SDS011;49973;52.084;5.412;2022-10-31T09:36:37;21.73;;;10.57;;
61911;SDS011;49973;52.084;5.412;2022-10-31T09:39:09;17.27;;;10.50;;
61911;SDS011;49973;52.084;5.412;2022-10-31T09:41:44;17.47;;;10.40;;
61911;SDS011;49973;52.084;5.412;2022-10-31T09:44:26;24.67;;;10.73;;
61911;SDS011;49973;52.084;5.412;2022-10-31T09:47:03;22.97;;;10.60;;
61911;SDS011;49973;52.084;5.412;2022-10-31T09:49:48;18.70;;;11.77;;
61911;SDS011;49973;52.084;5.412;2022-10-31T09:52:26;23.37;;;11.60;;
61911;SDS011;49973;52.084;5.412;2022-10-31T09:55:04;20.50;;;12.03;;
61911;SDS011;49973;52.084;5.412;2022-10-31T09:57:36;19.17;;;11.43;;
61911;SDS011;49973;52.084;5.412;2022-10-31T10:00:06;26.53;;;11.27;;
61911;SDS011;49973;52.084;5.412;2022-10-31T10:02:43;23.50;;;11.80;;
61911;SDS011;49973;52.084;5.412;2022-10-31T10:05:17;26.47;;;12.00;;
61911;SDS011;49973;52.084;5.412;2022-10-31T10:07:54;16.53;;;10.20;;
61911;SDS011;49973;52.084;5.412;2022-10-31T10:10:50;15.63;;;10.33;;
61911;SDS011;49973;52.084;5.412;2022-10-31T10:13:41;17.37;;;9.40;;
61911;SDS011;49973;52.084;5.412;2022-10-31T10:16:22;17.50;;;8.73;;
61911;SDS011;49973;52.084;5.412;2022-10-31T10:19:03;15.77;;;8.93;;
61911;SDS011;49973;52.084;5.412;2022-10-31T10:21:43;17.53;;;9.17;;
61911;SDS011;49973;52.084;5.412;2022-10-31T10:24:24;20.23;;;9.57;;
61911;SDS011;49973;52.084;5.412;2022-10-31T10:27:05;15.97;;;9.27;;
61911;SDS011;49973;52.084;5.412;2022-10-31T10:29:47;16.57;;;8.73;;
61911;SDS011;49973;52.084;5.412;2022-10-31T10:32:21;14.03;;;8.63;;
61911;SDS011;49973;52.084;5.412;2022-10-31T10:34:53;15.17;;;8.87;;
61911;SDS011;49973;52.084;5.412;2022-10-31T10:37:29;15.87;;;8.67;;
61911;SDS011;49973;52.084;5.412;2022-10-31T10:40:03;14.83;;;8.63;;
61911;SDS011;49973;52.084;5.412;2022-10-31T10:42:36;16.90;;;8.63;;
61911;SDS011;49973;52.084;5.412;2022-10-31T10:45:22;19.43;;;8.80;;
61911;SDS011;49973;52.084;5.412;2022-10-31T10:48:11;15.60;;;9.17;;
61911;SDS011;49973;52.084;5.412;2022-10-31T10:50:45;18.93;;;9.03;;
61911;SDS011;49973;52.084;5.412;2022-10-31T10:53:21;20.07;;;9.67;;
61911;SDS011;49973;52.084;5.412;2022-10-31T10:56:10;18.20;;;9.67;;
61911;SDS011;49973;52.084;5.412;2022-10-31T10:58:42;19.93;;;9.40;;
61911;SDS011;49973;52.084;5.412;2022-10-31T11:01:12;21.63;;;8.90;;
61911;SDS011;49973;52.084;5.412;2022-10-31T11:03:47;14.27;;;8.70;;
61911;SDS011;49973;52.084;5.412;2022-10-31T11:06:16;19.17;;;9.20;;
61911;SDS011;49973;52.084;5.412;2022-10-31T11:08:50;21.87;;;9.83;;
61911;SDS011;49973;52.084;5.412;2022-10-31T11:11:25;18.10;;;9.70;;
61911;SDS011;49973;52.084;5.412;2022-10-31T11:13:59;13.40;;;8.17;;
61911;SDS011;49973;52.084;5.412;2022-10-31T11:16:32;18.80;;;9.57;;
61911;SDS011;49973;52.084;5.412;2022-10-31T11:19:08;16.73;;;8.90;;
61911;SDS011;49973;52.084;5.412;2022-10-31T11:21:44;21.83;;;9.50;;
61911;SDS011;49973;52.084;5.412;2022-10-31T11:24:21;20.30;;;9.57;;
61911;SDS011;49973;52.084;5.412;2022-10-31T11:27:02;17.47;;;9.17;;
61911;SDS011;49973;52.084;5.412;2022-10-31T11:29:39;16.47;;;8.93;;
61911;SDS011;49973;52.084;5.412;2022-10-31T11:32:08;21.30;;;9.77;;
61911;SDS011;49973;52.084;5.412;2022-10-31T11:34:47;18.17;;;10.10;;
61911;SDS011;49973;52.084;5.412;2022-10-31T11:37:19;21.77;;;10.30;;
61911;SDS011;49973;52.084;5.412;2022-10-31T11:39:52;24.70;;;9.70;;
61911;SDS011;49973;52.084;5.412;2022-10-31T11:42:23;18.37;;;10.30;;
61911;SDS011;49973;52.084;5.412;2022-10-31T11:44:54;20.53;;;10.83;;
61911;SDS011;49973;52.084;5.412;2022-10-31T11:47:25;25.63;;;10.87;;
61911;SDS011;49973;52.084;5.412;2022-10-31T11:49:56;18.80;;;10.27;;
61911;SDS011;49973;52.084;5.412;2022-10-31T11:52:30;23.40;;;11.03;;
61911;SDS011;49973;52.084;5.412;2022-10-31T11:55:13;21.77;;;10.73;;
61911;SDS011;49973;52.084;5.412;2022-10-31T11:57:44;25.30;;;12.73;;
61911;SDS011;49973;52.084;5.412;2022-10-31T12:00:20;23.27;;;12.07;;
61911;SDS011;49973;52.084;5.412;2022-10-31T12:02:51;27.37;;;11.50;;
61911;SDS011;49973;52.084;5.412;2022-10-31T12:05:31;31.90;;;13.90;;
61911;SDS011;49973;52.084;5.412;2022-10-31T12:08:01;26.07;;;12.90;;
61911;SDS011;49973;52.084;5.412;2022-10-31T12:10:34;30.00;;;13.83;;
61911;SDS011;49973;52.084;5.412;2022-10-31T12:13:19;26.50;;;12.50;;
61911;SDS011;49973;52.084;5.412;2022-10-31T12:16:02;25.53;;;13.87;;
61911;SDS011;49973;52.084;5.412;2022-10-31T12:18:44;31.10;;;13.33;;
61911;SDS011;49973;52.084;5.412;2022-10-31T12:21:24;36.90;;;13.70;;
61911;SDS011;49973;52.084;5.412;2022-10-31T12:24:05;33.73;;;15.77;;
61911;SDS011;49973;52.084;5.412;2022-10-31T12:26:48;35.53;;;14.87;;
61911;SDS011;49973;52.084;5.412;2022-10-31T12:29:29;30.17;;;14.27;;
61911;SDS011;49973;52.084;5.412;2022-10-31T12:32:21;31.50;;;15.40;;
61911;SDS011;49973;52.084;5.412;2022-10-31T12:35:04;30.47;;;14.77;;
61911;SDS011;49973;52.084;5.412;2022-10-31T12:37:55;33.27;;;15.37;;
61911;SDS011;49973;52.084;5.412;2022-10-31T12:40:35;29.07;;;14.93;;
61911;SDS011;49973;52.084;5.412;2022-10-31T12:43:16;38.80;;;15.60;;
61911;SDS011;49973;52.084;5.412;2022-10-31T12:45:56;42.07;;;15.60;;
61911;SDS011;49973;52.084;5.412;2022-10-31T12:48:34;35.10;;;16.57;;
61911;SDS011;49973;52.084;5.412;2022-10-31T12:51:26;32.93;;;14.93;;
61911;SDS011;49973;52.084;5.412;2022-10-31T12:54:07;37.23;;;15.47;;
61911;SDS011;49973;52.084;5.412;2022-10-31T12:56:49;38.50;;;15.27;;
61911;SDS011;49973;52.084;5.412;2022-10-31T12:59:29;41.13;;;16.07;;
61911;SDS011;49973;52.084;5.412;2022-10-31T13:02:03;37.57;;;15.20;;
61911;SDS011;49973;52.084;5.412;2022-10-31T13:04:43;33.73;;;15.23;;
61911;SDS011;49973;52.084;5.412;2022-10-31T13:07:15;40.90;;;16.83;;
61911;SDS011;49973;52.084;5.412;2022-10-31T13:09:50;34.50;;;15.40;;
61911;SDS011;49973;52.084;5.412;2022-10-31T13:12:26;35.70;;;15.20;;
61911;SDS011;49973;52.084;5.412;2022-10-31T13:15:05;35.07;;;14.90;;
61911;SDS011;49973;52.084;5.412;2022-10-31T13:17:43;42.40;;;16.17;;
61911;SDS011;49973;52.084;5.412;2022-10-31T13:20:20;35.50;;;15.53;;
61911;SDS011;49973;52.084;5.412;2022-10-31T13:22:54;30.17;;;14.73;;
61911;SDS011;49973;52.084;5.412;2022-10-31T13:25:37;31.77;;;15.30;;
61911;SDS011;49973;52.084;5.412;2022-10-31T13:28:09;36.77;;;15.23;;
61911;SDS011;49973;52.084;5.412;2022-10-31T13:30:53;37.77;;;15.23;;
61911;SDS011;49973;52.084;5.412;2022-10-31T13:33:23;40.00;;;16.47;;
61911;SDS011;49973;52.084;5.412;2022-10-31T13:35:59;31.10;;;14.80;;
61911;SDS011;49973;52.084;5.412;2022-10-31T13:38:40;33.70;;;14.10;;
61911;SDS011;49973;52.084;5.412;2022-10-31T13:41:18;33.10;;;14.80;;
61911;SDS011;49973;52.084;5.412;2022-10-31T13:44:01;27.57;;;14.17;;
61911;SDS011;49973;52.084;5.412;2022-10-31T13:46:36;33.77;;;14.27;;
61911;SDS011;49973;52.084;5.412;2022-10-31T13:49:21;39.90;;;14.57;;
61911;SDS011;49973;52.084;5.412;2022-10-31T13:51:53;30.97;;;14.73;;
61911;SDS011;49973;52.084;5.412;2022-10-31T13:54:34;30.53;;;14.47;;
61911;SDS011;49973;52.084;5.412;2022-10-31T13:57:06;34.23;;;14.33;;
61911;SDS011;49973;52.084;5.412;2022-10-31T13:59:45;34.50;;;14.53;;
61911;SDS011;49973;52.084;5.412;2022-10-31T14:02:18;33.70;;;13.47;;
61911;SDS011;49973;52.084;5.412;2022-10-31T14:04:55;28.00;;;13.93;;
61911;SDS011;49973;52.084;5.412;2022-10-31T14:07:25;32.67;;;14.23;;
61911;SDS011;49973;52.084;5.412;2022-10-31T14:09:57;36.77;;;14.50;;
61911;SDS011;49973;52.084;5.412;2022-10-31T14:12:30;29.83;;;13.73;;
61911;SDS011;49973;52.084;5.412;2022-10-31T14:15:03;32.17;;;14.80;;
61911;SDS011;49973;52.084;5.412;2022-10-31T14:17:46;32.97;;;14.80;;
61911;SDS011;49973;52.084;5.412;2022-10-31T14:20:21;33.17;;;16.23;;
61911;SDS011;49973;52.084;5.412;2022-10-31T14:23:10;39.67;;;15.30;;
61911;SDS011;49973;52.084;5.412;2022-10-31T14:26:05;36.13;;;15.40;;
61911;SDS011;49973;52.084;5.412;2022-10-31T14:28:45;31.50;;;14.37;;
61911;SDS011;49973;52.084;5.412;2022-10-31T14:31:36;36.73;;;15.90;;
61911;SDS011;49973;52.084;5.412;2022-10-31T14:34:21;28.40;;;13.57;;
61911;SDS011;49973;52.084;5.412;2022-10-31T14:40:02;37.17;;;14.83;;
61911;SDS011;49973;52.084;5.412;2022-10-31T14:42:45;31.87;;;13.87;;
61911;SDS011;49973;52.084;5.412;2022-10-31T14:45:34;36.10;;;14.17;;
61911;SDS011;49973;52.084;5.412;2022-10-31T14:48:18;30.37;;;14.70;;
61911;SDS011;49973;52.084;5.412;2022-10-31T14:50:59;41.07;;;14.50;;
61911;SDS011;49973;52.084;5.412;2022-10-31T14:53:30;32.80;;;15.67;;
61911;SDS011;49973;52.084;5.412;2022-10-31T14:56:03;27.33;;;14.27;;
61911;SDS011;49973;52.084;5.412;2022-10-31T14:58:38;29.63;;;13.60;;
61911;SDS011;49973;52.084;5.412;2022-10-31T15:01:15;30.40;;;15.73;;
61911;SDS011;49973;52.084;5.412;2022-10-31T15:03:49;33.83;;;13.30;;
61911;SDS011;49973;52.084;5.412;2022-10-31T15:06:40;29.57;;;14.80;;
61911;SDS011;49973;52.084;5.412;2022-10-31T15:09:21;31.63;;;14.80;;
61911;SDS011;49973;52.084;5.412;2022-10-31T15:11:51;39.27;;;16.83;;
61911;SDS011;49973;52.084;5.412;2022-10-31T15:14:24;47.73;;;17.43;;
61911;SDS011;49973;52.084;5.412;2022-10-31T15:16:54;29.00;;;14.60;;
61911;SDS011;49973;52.084;5.412;2022-10-31T15:19:25;34.70;;;14.60;;
61911;SDS011;49973;52.084;5.412;2022-10-31T15:21:57;36.53;;;14.17;;
61911;SDS011;49973;52.084;5.412;2022-10-31T15:24:27;28.47;;;13.90;;